Taiki Maru — JI3464 — position and weather

sailwx.info

Track history (hours):
 
Tides and Currents Weather Stations Pressure Air Temp Water Temp Dewpoint Dewpoint Depression Visibility Wind Speed Wind Dir Waves Ship Positions

Taiki Maru

Last reported at 2018-Mar-23 20:07 UTC. Time now 2018-Jul-22 08:22 UTC.
Position N 34°26' E 134°08'.
Warning: this ship's position is months out of date.

Length 93 m; draft 5.2 m.

Type: Cargo ship. MMSI: 431300622.

Date/timePositionNaut miles runAvg speedWind from/ knotsBaromVisibWave heightAir tempDewpointWater temp
2018-Mar-23 20:07N 34°26' E 134°08'412.5
2018-Mar-23 19:49N 34°25' E 134°12'412.7
2018-Mar-23 19:31N 34°24' E 134°17'713.5
2018-Mar-23 19:00N 34°26' E 134°25'4 8.7
2018-Mar-23 18:31N 34°30' E 134°26'714.1
2018-Mar-23 18:01N 34°37' E 134°23'4 6.5
2018-Mar-23 17:21N 34°41' E 134°23'0 0.0
2018-Mar-23 16:57N 34°41' E 134°23'0 0.0
2018-Mar-23 16:27N 34°41' E 134°23'0 0.0
2018-Mar-23 15:57N 34°41' E 134°23'0 0.0
2018-Mar-23 15:21N 34°41' E 134°23'0 0.0
2018-Mar-23 14:51N 34°41' E 134°23'0 0.0
2018-Mar-23 14:21N 34°41' E 134°23'0 0.0
2018-Mar-23 13:57N 34°41' E 134°23'0 0.0
2018-Mar-23 13:21N 34°41' E 134°23'0 0.0
2018-Mar-23 12:51N 34°41' E 134°23'0 0.0
2018-Mar-23 12:27N 34°41' E 134°23'0 0.0
2018-Mar-23 07:03N 34°41' E 134°23'0 0.0
2018-Mar-23 06:57N 34°41' E 134°23'0 0.0
2018-Mar-23 06:09N 34°41' E 134°23'0 0.0
2018-Mar-23 05:57N 34°41' E 134°23'0 0.0
2018-Mar-23 05:27N 34°41' E 134°23'0 0.0
2018-Mar-23 04:39N 34°41' E 134°23'0 0.0
2018-Mar-23 02:39N 34°41' E 134°23'0 0.0
2018-Mar-23 02:27N 34°41' E 134°23'0 0.0
2018-Mar-22 13:27N 34°41' E 134°23'0 0.0
2018-Mar-22 09:33N 34°41' E 134°23'0 0.0
2018-Mar-22 09:15N 34°41' E 134°23'0 0.1
2018-Mar-22 07:57N 34°41' E 134°23'3 7.2
2018-Mar-22 07:28N 34°44' E 134°22'0 0.1
2018-Mar-22 03:15N 34°45' E 134°22'1 2.3
2018-Mar-22 03:00N 34°44' E 134°22'3 6.0
2018-Mar-22 02:29N 34°41' E 134°24'0 0.0
2018-Mar-21 21:02N 34°41' E 134°24'0 0.0
2018-Mar-21 13:14N 34°41' E 134°23'0 0.0
2018-Mar-21 06:30N 34°41' E 134°23'2 3.0
2018-Mar-21 05:56N 34°42' E 134°25'613.5
2018-Mar-21 05:29N 34°43' E 134°33'613.2
2018-Mar-21 05:00N 34°42' E 134°40'713.5
2018-Mar-21 04:30N 34°39' E 134°48'713.7
2018-Mar-21 04:00N 34°37' E 134°56'713.9
2018-Mar-21 03:30N 34°36' E 135°04'611.3
2018-Mar-21 03:00N 34°30' E 135°04'612.9
2018-Mar-21 02:30N 34°24' E 135°02'713.1
2018-Mar-21 02:00N 34°18' E 134°59'713.7
2018-Mar-21 01:30N 34°12' E 135°04'4 8.7
2018-Mar-21 01:01N 34°10' E 135°09'0 0.1
2018-Mar-21 00:29N 34°10' E 135°09'0 0.0
2018-Mar-20 23:59N 34°10' E 135°09'0 0.0
2018-Mar-20 23:29N 34°10' E 135°09'0 0.0
2018-Mar-20 22:59N 34°10' E 135°09'0 0.0
2018-Mar-20 22:29N 34°10' E 135°09'0 0.0
2018-Mar-20 21:59N 34°10' E 135°09'0 0.1
2018-Mar-20 21:29N 34°10' E 135°09'0 0.0
2018-Mar-20 20:59N 34°10' E 135°09'0 0.0
2018-Mar-20 20:29N 34°10' E 135°09'0 0.1
2018-Mar-20 19:59N 34°10' E 135°09'0 0.0
2018-Mar-20 19:29N 34°10' E 135°09'0 0.0
2018-Mar-20 18:59N 34°10' E 135°09'0 0.1
2018-Mar-20 18:29N 34°10' E 135°09'0 0.0
2018-Mar-20 17:59N 34°10' E 135°09'0 0.0
2018-Mar-20 17:29N 34°10' E 135°09'0 0.0
2018-Mar-20 16:59N 34°10' E 135°09'0 0.0
2018-Mar-20 16:29N 34°10' E 135°09'0 0.1
2018-Mar-20 15:59N 34°10' E 135°09'0 0.1
2018-Mar-20 15:29N 34°10' E 135°09'0 0.1
2018-Mar-20 14:59N 34°10' E 135°09'0 0.1
2018-Mar-20 14:29N 34°10' E 135°09'0 0.0
2018-Mar-20 13:59N 34°10' E 135°09'0 0.0
2018-Mar-20 13:29N 34°10' E 135°09'0 0.0
2018-Mar-20 12:59N 34°10' E 135°09'0 0.0
2018-Mar-20 12:29N 34°10' E 135°09'0 0.0
2018-Mar-20 11:59N 34°10' E 135°09'0 0.0
2018-Mar-20 11:29N 34°10' E 135°09'0 0.0
2018-Mar-20 10:59N 34°10' E 135°09'0 0.0
2018-Mar-20 10:29N 34°10' E 135°09'0 0.0
2018-Mar-20 09:59N 34°10' E 135°09'0 0.0
2018-Mar-20 09:29N 34°10' E 135°09'0 0.0
2018-Mar-20 08:59N 34°10' E 135°09'0 0.0
2018-Mar-20 08:29N 34°10' E 135°09'0 0.0
2018-Mar-20 07:59N 34°10' E 135°09'0 0.0
2018-Mar-20 07:29N 34°10' E 135°09'0 0.0
2018-Mar-20 06:59N 34°10' E 135°09'0 0.0
2018-Mar-20 06:29N 34°10' E 135°09'0 0.0
2018-Mar-20 05:59N 34°10' E 135°09'0 0.0
2018-Mar-20 05:29N 34°10' E 135°09'0 0.0
2018-Mar-20 04:59N 34°10' E 135°09'0 0.0
2018-Mar-20 04:29N 34°10' E 135°09'0 0.0
2018-Mar-20 03:59N 34°10' E 135°09'0 0.0
2018-Mar-20 03:29N 34°10' E 135°09'0 0.0
2018-Mar-20 02:59N 34°10' E 135°09'0 0.0
2018-Mar-20 02:29N 34°10' E 135°09'0 0.0
2018-Mar-20 01:59N 34°10' E 135°09'0 0.0
2018-Mar-20 01:29N 34°10' E 135°09'0 0.0
2018-Mar-20 00:59N 34°10' E 135°09'0 0.0
2018-Mar-20 00:29N 34°10' E 135°09'0 0.0
2018-Mar-19 23:59N 34°10' E 135°09'0 0.0
2018-Mar-19 23:29N 34°10' E 135°09'0 0.0
2018-Mar-19 22:59N 34°10' E 135°09'0 0.0
2018-Mar-19 22:29N 34°10' E 135°09'0 0.0
2018-Mar-19 21:59N 34°10' E 135°09'0 0.0
2018-Mar-19 21:29N 34°10' E 135°09'0 0.0
2018-Mar-19 20:56N 34°10' E 135°09'0 0.0
2018-Mar-19 20:29N 34°10' E 135°09'0 0.0
2018-Mar-19 19:59N 34°10' E 135°09'0 0.0
2018-Mar-19 19:29N 34°10' E 135°09'0 0.0
2018-Mar-19 18:59N 34°10' E 135°09'0 0.0
2018-Mar-19 18:29N 34°10' E 135°09'0 0.0
2018-Mar-19 17:59N 34°10' E 135°09'0 0.0
2018-Mar-19 17:29N 34°10' E 135°09'0 0.0
2018-Mar-19 16:59N 34°10' E 135°09'0 0.0
2018-Mar-19 16:29N 34°10' E 135°09'0 0.1
2018-Mar-19 15:59N 34°10' E 135°09'0 0.1
2018-Mar-19 15:29N 34°10' E 135°09'0 0.0
2018-Mar-19 14:59N 34°10' E 135°09'0 0.1
2018-Mar-19 14:29N 34°10' E 135°09'0 0.2
2018-Mar-19 13:59N 34°10' E 135°09'3 5.6
2018-Mar-19 13:31N 34°12' E 135°06'3 5.3
2018-Mar-19 13:00N 34°14' E 135°08'0 0.2
2018-Mar-19 12:28N 34°14' E 135°08'0 0.0
2018-Mar-19 11:58N 34°14' E 135°08'0 0.0
2018-Mar-19 11:28N 34°14' E 135°08'0 0.0
2018-Mar-19 10:58N 34°14' E 135°08'0 0.1
2018-Mar-19 10:28N 34°14' E 135°08'0 0.0
2018-Mar-19 09:58N 34°14' E 135°08'0 0.1
2018-Mar-19 09:28N 34°14' E 135°08'0 0.0
2018-Mar-19 08:58N 34°14' E 135°08'0 0.0
2018-Mar-19 08:28N 34°14' E 135°08'0 0.0
2018-Mar-19 07:58N 34°14' E 135°08'0 0.0
2018-Mar-19 07:28N 34°14' E 135°08'0 0.0
2018-Mar-19 06:58N 34°14' E 135°08'0 0.0
2018-Mar-19 06:28N 34°14' E 135°08'0 0.0
2018-Mar-19 05:58N 34°14' E 135°08'0 0.0
2018-Mar-19 05:28N 34°14' E 135°08'0 0.0
2018-Mar-19 04:58N 34°14' E 135°08'0 0.0
2018-Mar-19 04:28N 34°14' E 135°08'0 0.0
2018-Mar-19 03:58N 34°14' E 135°08'0 0.0
2018-Mar-19 03:28N 34°14' E 135°08'0 0.0
2018-Mar-19 02:58N 34°14' E 135°08'0 0.1
2018-Mar-19 02:28N 34°14' E 135°08'0 0.1
2018-Mar-19 01:58N 34°14' E 135°08'0 0.0
2018-Mar-19 01:28N 34°14' E 135°08'0 0.0
2018-Mar-19 00:58N 34°14' E 135°08'0 0.1
2018-Mar-19 00:28N 34°14' E 135°08'0 0.1
2018-Mar-18 23:58N 34°14' E 135°08'0 0.0
2018-Mar-18 23:28N 34°14' E 135°08'0 0.0
2018-Mar-18 22:58N 34°14' E 135°08'0 0.0
2018-Mar-18 22:30N 34°14' E 135°08'2 4.4
2018-Mar-18 22:00N 34°14' E 135°05'3 6.2
2018-Mar-18 21:30N 34°11' E 135°07'0 0.0
2018-Mar-18 21:00N 34°11' E 135°07'0 0.0
2018-Mar-18 20:30N 34°11' E 135°07'0 0.0
2018-Mar-18 20:00N 34°11' E 135°07'0 0.0
2018-Mar-18 19:30N 34°11' E 135°07'0 0.1
2018-Mar-18 19:00N 34°11' E 135°07'0 0.0
2018-Mar-18 18:30N 34°11' E 135°07'0 0.0
2018-Mar-18 18:00N 34°11' E 135°07'0 0.0
2018-Mar-18 17:30N 34°11' E 135°07'0 0.0
2018-Mar-18 17:00N 34°11' E 135°07'0 0.0
2018-Mar-18 16:30N 34°11' E 135°07'0 0.0
2018-Mar-18 16:00N 34°11' E 135°07'0 0.0
2018-Mar-18 15:30N 34°11' E 135°07'0 0.0
2018-Mar-18 15:00N 34°11' E 135°07'0 0.0
2018-Mar-18 14:30N 34°11' E 135°07'0 0.0
2018-Mar-18 14:00N 34°11' E 135°07'0 0.0
2018-Mar-18 13:30N 34°11' E 135°07'0 0.0
2018-Mar-18 13:00N 34°11' E 135°07'0 0.0
2018-Mar-18 12:30N 34°11' E 135°07'0 0.0
2018-Mar-18 12:00N 34°11' E 135°07'0 0.0
2018-Mar-18 11:30N 34°11' E 135°07'0 0.0
2018-Mar-18 11:00N 34°11' E 135°07'0 0.0
2018-Mar-18 10:30N 34°11' E 135°07'0 0.0
2018-Mar-18 10:00N 34°11' E 135°07'0 0.0
2018-Mar-18 09:30N 34°11' E 135°07'0 0.0
2018-Mar-18 09:00N 34°11' E 135°07'0 0.0
2018-Mar-18 08:30N 34°11' E 135°07'0 0.0
2018-Mar-18 08:00N 34°11' E 135°07'0 0.0
2018-Mar-18 07:30N 34°11' E 135°07'0 0.0
2018-Mar-18 07:00N 34°11' E 135°07'0 0.0
2018-Mar-18 06:30N 34°11' E 135°07'0 0.0
2018-Mar-18 06:00N 34°11' E 135°07'0 0.0
2018-Mar-18 05:30N 34°11' E 135°07'0 0.0
2018-Mar-18 05:00N 34°11' E 135°07'0 0.0
2018-Mar-18 04:30N 34°11' E 135°07'0 0.0
2018-Mar-18 04:00N 34°11' E 135°07'0 0.0
2018-Mar-18 03:30N 34°11' E 135°07'0 0.0
2018-Mar-18 03:00N 34°11' E 135°07'0 0.0
2018-Mar-18 02:30N 34°11' E 135°07'0 0.0
2018-Mar-18 02:00N 34°11' E 135°07'0 0.0
2018-Mar-18 01:30N 34°11' E 135°07'0 0.0
2018-Mar-18 01:00N 34°11' E 135°07'0 0.0
2018-Mar-18 00:30N 34°11' E 135°07'0 0.1
2018-Mar-18 00:00N 34°11' E 135°07'0 0.0
2018-Mar-17 23:30N 34°11' E 135°07'0 0.0
2018-Mar-17 23:00N 34°11' E 135°07'0 0.0
2018-Mar-17 22:30N 34°11' E 135°07'0 0.0
2018-Mar-17 22:00N 34°11' E 135°07'0 0.0
2018-Mar-17 21:30N 34°11' E 135°07'0 0.0
2018-Mar-17 21:00N 34°11' E 135°07'0 0.0
2018-Mar-17 20:30N 34°11' E 135°07'0 0.0
2018-Mar-17 20:00N 34°11' E 135°07'0 0.0
2018-Mar-17 19:30N 34°11' E 135°07'0 0.0
2018-Mar-17 19:00N 34°11' E 135°07'0 0.1
2018-Mar-17 18:30N 34°11' E 135°07'0 0.0
2018-Mar-17 18:00N 34°11' E 135°07'0 0.0
2018-Mar-17 17:30N 34°11' E 135°07'0 0.0
2018-Mar-17 17:00N 34°11' E 135°07'0 0.0
2018-Mar-17 16:30N 34°11' E 135°07'0 0.0
2018-Mar-17 16:00N 34°11' E 135°07'0 0.0
2018-Mar-17 15:30N 34°11' E 135°07'0 0.0
2018-Mar-17 15:00N 34°11' E 135°07'0 0.0
2018-Mar-17 14:30N 34°11' E 135°07'0 0.0
2018-Mar-17 14:00N 34°11' E 135°07'0 0.0
2018-Mar-17 13:30N 34°11' E 135°07'0 0.0
2018-Mar-17 13:00N 34°11' E 135°07'0 0.0
2018-Mar-17 12:30N 34°11' E 135°07'0 0.1
2018-Mar-17 12:00N 34°11' E 135°07'0 0.1
2018-Mar-17 11:30N 34°11' E 135°07'0 0.0
2018-Mar-17 11:00N 34°11' E 135°07'0 0.0
2018-Mar-17 10:30N 34°11' E 135°07'0 0.0
2018-Mar-17 10:00N 34°11' E 135°07'0 0.0
2018-Mar-17 09:30N 34°11' E 135°07'0 0.0
2018-Mar-17 09:00N 34°11' E 135°07'0 0.0
2018-Mar-17 08:30N 34°11' E 135°07'0 0.0
2018-Mar-17 08:00N 34°11' E 135°07'0 0.0
2018-Mar-17 07:30N 34°11' E 135°07'0 0.0
2018-Mar-17 07:00N 34°11' E 135°07'0 0.0
2018-Mar-17 06:30N 34°11' E 135°07'0 0.0
2018-Mar-17 06:00N 34°11' E 135°07'0 0.0
2018-Mar-17 05:30N 34°11' E 135°07'0 0.0
2018-Mar-17 05:00N 34°11' E 135°07'0 0.0
2018-Mar-17 04:30N 34°11' E 135°07'0 0.0
2018-Mar-17 04:00N 34°11' E 135°07'0 0.0
2018-Mar-17 03:30N 34°11' E 135°07'0 0.0
2018-Mar-17 03:00N 34°11' E 135°07'0 0.0
2018-Mar-17 02:30N 34°11' E 135°07'0 0.0
2018-Mar-17 02:00N 34°11' E 135°07'0 0.1
2018-Mar-17 01:30N 34°11' E 135°07'0 0.0
2018-Mar-17 01:00N 34°11' E 135°07'0 0.0
2018-Mar-17 00:30N 34°11' E 135°07'0 0.0
2018-Mar-17 00:00N 34°11' E 135°07'0 0.1
2018-Mar-16 23:30N 34°11' E 135°07'0 0.0
2018-Mar-16 23:00N 34°11' E 135°07'0 0.0
2018-Mar-16 22:30N 34°11' E 135°07'0 0.0
2018-Mar-16 22:00N 34°11' E 135°07'0 0.1
2018-Mar-16 21:30N 34°11' E 135°07'0 0.0
2018-Mar-16 21:00N 34°11' E 135°07'0 0.0
2018-Mar-16 20:30N 34°11' E 135°07'0 0.0
2018-Mar-16 20:00N 34°11' E 135°07'0 0.0
2018-Mar-16 19:30N 34°11' E 135°07'0 0.0
2018-Mar-16 19:00N 34°11' E 135°07'0 0.0
2018-Mar-16 18:30N 34°11' E 135°07'1 1.7
2018-Mar-16 18:00N 34°11' E 135°06'612.3
2018-Mar-16 17:31N 34°15' E 134°60'712.9
2018-Mar-16 17:00N 34°21' E 134°60'713.3
2018-Mar-16 16:30N 34°28' E 135°01'713.3
2018-Mar-16 16:00N 34°34' E 135°03'611.8
2018-Mar-16 15:30N 34°36' E 134°56'713.8
2018-Mar-16 15:00N 34°38' E 134°48'612.3
2018-Mar-16 14:30N 34°40' E 134°41'611.5
2018-Mar-16 14:00N 34°42' E 134°35'612.0
2018-Mar-16 13:30N 34°42' E 134°27'5 8.6
2018-Mar-16 12:57N 34°44' E 134°22'1 0.1
2018-Mar-16 03:38N 34°45' E 134°22'0 1.1
2018-Mar-16 03:30N 34°45' E 134°22'4 6.0
2018-Mar-16 02:54N 34°42' E 134°25'613.8
2018-Mar-16 02:30N 34°43' E 134°32'713.3
2018-Mar-16 01:59N 34°42' E 134°40'613.3
2018-Mar-16 01:30N 34°39' E 134°47'714.0
2018-Mar-16 01:00N 34°37' E 134°55'714.4
2018-Mar-16 00:30N 34°36' E 135°04'612.1
2018-Mar-16 00:00N 34°30' E 135°04'713.7
2018-Mar-15 23:31N 34°23' E 135°02'714.4
2018-Mar-15 23:01N 34°16' E 134°60'612.5
2018-Mar-15 22:30N 34°14' E 135°07'1 1.6
2018-Mar-15 21:58N 34°14' E 135°08'0 0.0
2018-Mar-15 21:28N 34°14' E 135°08'0 0.0
2018-Mar-15 20:58N 34°14' E 135°08'0 0.0
2018-Mar-15 20:28N 34°14' E 135°08'0 0.0
2018-Mar-15 19:58N 34°14' E 135°08'0 0.0
2018-Mar-15 19:28N 34°14' E 135°08'0 0.1
2018-Mar-15 18:58N 34°14' E 135°08'0 0.0
2018-Mar-15 18:28N 34°14' E 135°08'0 0.1
2018-Mar-15 17:58N 34°14' E 135°08'0 0.0
2018-Mar-15 17:28N 34°14' E 135°08'0 0.0
2018-Mar-15 16:58N 34°14' E 135°08'0 0.0
2018-Mar-15 16:28N 34°14' E 135°08'0 0.0
2018-Mar-15 15:55N 34°14' E 135°08'0 0.0
2018-Mar-15 15:28N 34°14' E 135°08'0 0.0
2018-Mar-15 14:58N 34°14' E 135°08'0 0.0
2018-Mar-15 14:28N 34°14' E 135°08'0 0.0
2018-Mar-15 13:58N 34°14' E 135°08'0 0.1
2018-Mar-15 13:28N 34°14' E 135°08'0 0.0
2018-Mar-15 12:58N 34°14' E 135°08'0 0.0
2018-Mar-15 12:28N 34°14' E 135°08'0 0.1
2018-Mar-15 11:58N 34°14' E 135°08'0 0.0
2018-Mar-15 11:25N 34°14' E 135°08'0 0.0
2018-Mar-15 10:58N 34°14' E 135°08'0 0.0
2018-Mar-15 10:28N 34°14' E 135°08'0 0.0
2018-Mar-15 09:58N 34°14' E 135°08'0 0.0
2018-Mar-15 09:28N 34°14' E 135°08'0 0.1
2018-Mar-15 08:58N 34°14' E 135°08'0 0.1
2018-Mar-15 08:28N 34°14' E 135°08'0 0.0
2018-Mar-15 07:58N 34°14' E 135°08'0 0.5
2018-Mar-15 07:30N 34°14' E 135°08'2 4.3
2018-Mar-15 07:00N 34°14' E 135°05'2 3.2
2018-Mar-15 06:30N 34°13' E 135°05'2 4.0
2018-Mar-15 06:00N 34°11' E 135°07'0 0.0
2018-Mar-15 05:29N 34°11' E 135°07'0 0.0
2018-Mar-15 04:59N 34°11' E 135°07'0 0.0
2018-Mar-15 04:29N 34°11' E 135°07'0 0.0
2018-Mar-15 03:59N 34°11' E 135°07'0 0.0
2018-Mar-15 03:29N 34°11' E 135°07'0 0.0
2018-Mar-15 02:59N 34°11' E 135°07'0 0.1
2018-Mar-15 02:29N 34°11' E 135°07'0 0.1
2018-Mar-15 01:59N 34°11' E 135°07'0 0.0
2018-Mar-15 01:29N 34°11' E 135°07'0 0.0
2018-Mar-15 00:59N 34°11' E 135°07'0 0.0
2018-Mar-15 00:29N 34°11' E 135°07'0 0.1
2018-Mar-14 23:59N 34°11' E 135°07'0 0.1
2018-Mar-14 23:29N 34°11' E 135°07'0 0.0
2018-Mar-14 22:59N 34°11' E 135°07'0 0.0
2018-Mar-14 22:29N 34°11' E 135°07'0 0.0
2018-Mar-14 21:59N 34°11' E 135°07'0 0.0
2018-Mar-14 21:29N 34°11' E 135°07'0 0.0
2018-Mar-14 20:59N 34°11' E 135°07'0 0.0
2018-Mar-14 20:29N 34°11' E 135°07'0 0.0
2018-Mar-14 19:59N 34°11' E 135°07'0 0.0
2018-Mar-14 19:29N 34°11' E 135°07'0 0.0
2018-Mar-14 18:59N 34°11' E 135°07'0 0.0
2018-Mar-14 18:29N 34°11' E 135°07'0 0.0
2018-Mar-14 17:59N 34°11' E 135°07'0 0.0
2018-Mar-14 17:29N 34°11' E 135°07'0 0.0
2018-Mar-14 16:59N 34°11' E 135°07'0 0.0
2018-Mar-14 16:29N 34°11' E 135°07'0 0.1
2018-Mar-14 15:59N 34°11' E 135°07'0 0.1
2018-Mar-14 15:29N 34°11' E 135°07'0 0.1
2018-Mar-14 14:59N 34°11' E 135°07'0 0.0
2018-Mar-14 14:29N 34°11' E 135°07'0 0.0
2018-Mar-14 13:59N 34°11' E 135°07'2 3.9
2018-Mar-14 13:30N 34°10' E 135°05'611.8
2018-Mar-14 13:00N 34°05' E 135°01'611.9
2018-Mar-14 12:30N 33°59' E 135°00'612.2
2018-Mar-14 12:00N 33°54' E 134°58'612.1
2018-Mar-14 11:29N 33°48' E 134°55'  
Track history (hours):
 
Tides and Currents Weather Stations Pressure Air Temp Water Temp Dewpoint Dewpoint Depression Visibility Wind Speed Wind Dir Waves Ship Positions

Taiki Maru

Last reported at 2018-Mar-23 20:07 UTC. Time now 2018-Jul-22 08:22 UTC.
Position N 34°26' E 134°08'.
Warning: this ship's position is months out of date.

Length 93 m; draft 5.2 m.

Type: Cargo ship. MMSI: 431300622.

Date/timePositionNaut miles runAvg speedWind from/ knotsBaromVisibWave heightAir tempDewpointWater temp
2018-Mar-23 20:07N 34°26' E 134°08'412.5
2018-Mar-23 19:49N 34°25' E 134°12'412.7
2018-Mar-23 19:31N 34°24' E 134°17'713.5
2018-Mar-23 19:00N 34°26' E 134°25'4 8.7
2018-Mar-23 18:31N 34°30' E 134°26'714.1
2018-Mar-23 18:01N 34°37' E 134°23'4 6.5
2018-Mar-23 17:21N 34°41' E 134°23'0 0.0
2018-Mar-23 16:57N 34°41' E 134°23'0 0.0
2018-Mar-23 16:27N 34°41' E 134°23'0 0.0
2018-Mar-23 15:57N 34°41' E 134°23'0 0.0
2018-Mar-23 15:21N 34°41' E 134°23'0 0.0
2018-Mar-23 14:51N 34°41' E 134°23'0 0.0
2018-Mar-23 14:21N 34°41' E 134°23'0 0.0
2018-Mar-23 13:57N 34°41' E 134°23'0 0.0
2018-Mar-23 13:21N 34°41' E 134°23'0 0.0
2018-Mar-23 12:51N 34°41' E 134°23'0 0.0
2018-Mar-23 12:27N 34°41' E 134°23'0 0.0
2018-Mar-23 07:03N 34°41' E 134°23'0 0.0
2018-Mar-23 06:57N 34°41' E 134°23'0 0.0
2018-Mar-23 06:09N 34°41' E 134°23'0 0.0
2018-Mar-23 05:57N 34°41' E 134°23'0 0.0
2018-Mar-23 05:27N 34°41' E 134°23'0 0.0
2018-Mar-23 04:39N 34°41' E 134°23'0 0.0
2018-Mar-23 02:39N 34°41' E 134°23'0 0.0
2018-Mar-23 02:27N 34°41' E 134°23'0 0.0
2018-Mar-22 13:27N 34°41' E 134°23'0 0.0
2018-Mar-22 09:33N 34°41' E 134°23'0 0.0
2018-Mar-22 09:15N 34°41' E 134°23'0 0.1
2018-Mar-22 07:57N 34°41' E 134°23'3 7.2
2018-Mar-22 07:28N 34°44' E 134°22'0 0.1
2018-Mar-22 03:15N 34°45' E 134°22'1 2.3
2018-Mar-22 03:00N 34°44' E 134°22'3 6.0
2018-Mar-22 02:29N 34°41' E 134°24'0 0.0
2018-Mar-21 21:02N 34°41' E 134°24'0 0.0
2018-Mar-21 13:14N 34°41' E 134°23'0 0.0
2018-Mar-21 06:30N 34°41' E 134°23'2 3.0
2018-Mar-21 05:56N 34°42' E 134°25'613.5
2018-Mar-21 05:29N 34°43' E 134°33'613.2
2018-Mar-21 05:00N 34°42' E 134°40'713.5
2018-Mar-21 04:30N 34°39' E 134°48'713.7
2018-Mar-21 04:00N 34°37' E 134°56'713.9
2018-Mar-21 03:30N 34°36' E 135°04'611.3
2018-Mar-21 03:00N 34°30' E 135°04'612.9
2018-Mar-21 02:30N 34°24' E 135°02'713.1
2018-Mar-21 02:00N 34°18' E 134°59'713.7
2018-Mar-21 01:30N 34°12' E 135°04'4 8.7
2018-Mar-21 01:01N 34°10' E 135°09'0 0.1
2018-Mar-21 00:29N 34°10' E 135°09'0 0.0
2018-Mar-20 23:59N 34°10' E 135°09'0 0.0
2018-Mar-20 23:29N 34°10' E 135°09'0 0.0
2018-Mar-20 22:59N 34°10' E 135°09'0 0.0
2018-Mar-20 22:29N 34°10' E 135°09'0 0.0
2018-Mar-20 21:59N 34°10' E 135°09'0 0.1
2018-Mar-20 21:29N 34°10' E 135°09'0 0.0
2018-Mar-20 20:59N 34°10' E 135°09'0 0.0
2018-Mar-20 20:29N 34°10' E 135°09'0 0.1
2018-Mar-20 19:59N 34°10' E 135°09'0 0.0
2018-Mar-20 19:29N 34°10' E 135°09'0 0.0
2018-Mar-20 18:59N 34°10' E 135°09'0 0.1
2018-Mar-20 18:29N 34°10' E 135°09'0 0.0
2018-Mar-20 17:59N 34°10' E 135°09'0 0.0
2018-Mar-20 17:29N 34°10' E 135°09'0 0.0
2018-Mar-20 16:59N 34°10' E 135°09'0 0.0
2018-Mar-20 16:29N 34°10' E 135°09'0 0.1
2018-Mar-20 15:59N 34°10' E 135°09'0 0.1
2018-Mar-20 15:29N 34°10' E 135°09'0 0.1
2018-Mar-20 14:59N 34°10' E 135°09'0 0.1
2018-Mar-20 14:29N 34°10' E 135°09'0 0.0
2018-Mar-20 13:59N 34°10' E 135°09'0 0.0
2018-Mar-20 13:29N 34°10' E 135°09'0 0.0
2018-Mar-20 12:59N 34°10' E 135°09'0 0.0
2018-Mar-20 12:29N 34°10' E 135°09'0 0.0
2018-Mar-20 11:59N 34°10' E 135°09'0 0.0
2018-Mar-20 11:29N 34°10' E 135°09'0 0.0
2018-Mar-20 10:59N 34°10' E 135°09'0 0.0
2018-Mar-20 10:29N 34°10' E 135°09'0 0.0
2018-Mar-20 09:59N 34°10' E 135°09'0 0.0
2018-Mar-20 09:29N 34°10' E 135°09'0 0.0
2018-Mar-20 08:59N 34°10' E 135°09'0 0.0
2018-Mar-20 08:29N 34°10' E 135°09'0 0.0
2018-Mar-20 07:59N 34°10' E 135°09'0 0.0
2018-Mar-20 07:29N 34°10' E 135°09'0 0.0
2018-Mar-20 06:59N 34°10' E 135°09'0 0.0
2018-Mar-20 06:29N 34°10' E 135°09'0 0.0
2018-Mar-20 05:59N 34°10' E 135°09'0 0.0
2018-Mar-20 05:29N 34°10' E 135°09'0 0.0
2018-Mar-20 04:59N 34°10' E 135°09'0 0.0
2018-Mar-20 04:29N 34°10' E 135°09'0 0.0
2018-Mar-20 03:59N 34°10' E 135°09'0 0.0
2018-Mar-20 03:29N 34°10' E 135°09'0 0.0
2018-Mar-20 02:59N 34°10' E 135°09'0 0.0
2018-Mar-20 02:29N 34°10' E 135°09'0 0.0
2018-Mar-20 01:59N 34°10' E 135°09'0 0.0
2018-Mar-20 01:29N 34°10' E 135°09'0 0.0
2018-Mar-20 00:59N 34°10' E 135°09'0 0.0
2018-Mar-20 00:29N 34°10' E 135°09'0 0.0
2018-Mar-19 23:59N 34°10' E 135°09'0 0.0
2018-Mar-19 23:29N 34°10' E 135°09'0 0.0
2018-Mar-19 22:59N 34°10' E 135°09'0 0.0
2018-Mar-19 22:29N 34°10' E 135°09'0 0.0
2018-Mar-19 21:59N 34°10' E 135°09'0 0.0
2018-Mar-19 21:29N 34°10' E 135°09'0 0.0
2018-Mar-19 20:56N 34°10' E 135°09'0 0.0
2018-Mar-19 20:29N 34°10' E 135°09'0 0.0
2018-Mar-19 19:59N 34°10' E 135°09'0 0.0
2018-Mar-19 19:29N 34°10' E 135°09'0 0.0
2018-Mar-19 18:59N 34°10' E 135°09'0 0.0
2018-Mar-19 18:29N 34°10' E 135°09'0 0.0
2018-Mar-19 17:59N 34°10' E 135°09'0 0.0
2018-Mar-19 17:29N 34°10' E 135°09'0 0.0
2018-Mar-19 16:59N 34°10' E 135°09'0 0.0
2018-Mar-19 16:29N 34°10' E 135°09'0 0.1
2018-Mar-19 15:59N 34°10' E 135°09'0 0.1
2018-Mar-19 15:29N 34°10' E 135°09'0 0.0
2018-Mar-19 14:59N 34°10' E 135°09'0 0.1
2018-Mar-19 14:29N 34°10' E 135°09'0 0.2
2018-Mar-19 13:59N 34°10' E 135°09'3 5.6
2018-Mar-19 13:31N 34°12' E 135°06'3 5.3
2018-Mar-19 13:00N 34°14' E 135°08'0 0.2
2018-Mar-19 12:28N 34°14' E 135°08'0 0.0
2018-Mar-19 11:58N 34°14' E 135°08'0 0.0
2018-Mar-19 11:28N 34°14' E 135°08'0 0.0
2018-Mar-19 10:58N 34°14' E 135°08'0 0.1
2018-Mar-19 10:28N 34°14' E 135°08'0 0.0
2018-Mar-19 09:58N 34°14' E 135°08'0 0.1
2018-Mar-19 09:28N 34°14' E 135°08'0 0.0
2018-Mar-19 08:58N 34°14' E 135°08'0 0.0
2018-Mar-19 08:28N 34°14' E 135°08'0 0.0
2018-Mar-19 07:58N 34°14' E 135°08'0 0.0
2018-Mar-19 07:28N 34°14' E 135°08'0 0.0
2018-Mar-19 06:58N 34°14' E 135°08'0 0.0
2018-Mar-19 06:28N 34°14' E 135°08'0 0.0
2018-Mar-19 05:58N 34°14' E 135°08'0 0.0
2018-Mar-19 05:28N 34°14' E 135°08'0 0.0
2018-Mar-19 04:58N 34°14' E 135°08'0 0.0
2018-Mar-19 04:28N 34°14' E 135°08'0 0.0
2018-Mar-19 03:58N 34°14' E 135°08'0 0.0
2018-Mar-19 03:28N 34°14' E 135°08'0 0.0
2018-Mar-19 02:58N 34°14' E 135°08'0 0.1
2018-Mar-19 02:28N 34°14' E 135°08'0 0.1
2018-Mar-19 01:58N 34°14' E 135°08'0 0.0
2018-Mar-19 01:28N 34°14' E 135°08'0 0.0
2018-Mar-19 00:58N 34°14' E 135°08'0 0.1
2018-Mar-19 00:28N 34°14' E 135°08'0 0.1
2018-Mar-18 23:58N 34°14' E 135°08'0 0.0
2018-Mar-18 23:28N 34°14' E 135°08'0 0.0
2018-Mar-18 22:58N 34°14' E 135°08'0 0.0
2018-Mar-18 22:30N 34°14' E 135°08'2 4.4
2018-Mar-18 22:00N 34°14' E 135°05'3 6.2
2018-Mar-18 21:30N 34°11' E 135°07'0 0.0
2018-Mar-18 21:00N 34°11' E 135°07'0 0.0
2018-Mar-18 20:30N 34°11' E 135°07'0 0.0
2018-Mar-18 20:00N 34°11' E 135°07'0 0.0
2018-Mar-18 19:30N 34°11' E 135°07'0 0.1
2018-Mar-18 19:00N 34°11' E 135°07'0 0.0
2018-Mar-18 18:30N 34°11' E 135°07'0 0.0
2018-Mar-18 18:00N 34°11' E 135°07'0 0.0
2018-Mar-18 17:30N 34°11' E 135°07'0 0.0
2018-Mar-18 17:00N 34°11' E 135°07'0 0.0
2018-Mar-18 16:30N 34°11' E 135°07'0 0.0
2018-Mar-18 16:00N 34°11' E 135°07'0 0.0
2018-Mar-18 15:30N 34°11' E 135°07'0 0.0
2018-Mar-18 15:00N 34°11' E 135°07'0 0.0
2018-Mar-18 14:30N 34°11' E 135°07'0 0.0
2018-Mar-18 14:00N 34°11' E 135°07'0 0.0
2018-Mar-18 13:30N 34°11' E 135°07'0 0.0
2018-Mar-18 13:00N 34°11' E 135°07'0 0.0
2018-Mar-18 12:30N 34°11' E 135°07'0 0.0
2018-Mar-18 12:00N 34°11' E 135°07'0 0.0
2018-Mar-18 11:30N 34°11' E 135°07'0 0.0
2018-Mar-18 11:00N 34°11' E 135°07'0 0.0
2018-Mar-18 10:30N 34°11' E 135°07'0 0.0
2018-Mar-18 10:00N 34°11' E 135°07'0 0.0
2018-Mar-18 09:30N 34°11' E 135°07'0 0.0
2018-Mar-18 09:00N 34°11' E 135°07'0 0.0
2018-Mar-18 08:30N 34°11' E 135°07'0 0.0
2018-Mar-18 08:00N 34°11' E 135°07'0 0.0
2018-Mar-18 07:30N 34°11' E 135°07'0 0.0
2018-Mar-18 07:00N 34°11' E 135°07'0 0.0
2018-Mar-18 06:30N 34°11' E 135°07'0 0.0
2018-Mar-18 06:00N 34°11' E 135°07'0 0.0
2018-Mar-18 05:30N 34°11' E 135°07'0 0.0
2018-Mar-18 05:00N 34°11' E 135°07'0 0.0
2018-Mar-18 04:30N 34°11' E 135°07'0 0.0
2018-Mar-18 04:00N 34°11' E 135°07'0 0.0
2018-Mar-18 03:30N 34°11' E 135°07'0 0.0
2018-Mar-18 03:00N 34°11' E 135°07'0 0.0
2018-Mar-18 02:30N 34°11' E 135°07'0 0.0
2018-Mar-18 02:00N 34°11' E 135°07'0 0.0
2018-Mar-18 01:30N 34°11' E 135°07'0 0.0
2018-Mar-18 01:00N 34°11' E 135°07'0 0.0
2018-Mar-18 00:30N 34°11' E 135°07'0 0.1
2018-Mar-18 00:00N 34°11' E 135°07'0 0.0
2018-Mar-17 23:30N 34°11' E 135°07'0 0.0
2018-Mar-17 23:00N 34°11' E 135°07'0 0.0
2018-Mar-17 22:30N 34°11' E 135°07'0 0.0
2018-Mar-17 22:00N 34°11' E 135°07'0 0.0
2018-Mar-17 21:30N 34°11' E 135°07'0 0.0
2018-Mar-17 21:00N 34°11' E 135°07'0 0.0
2018-Mar-17 20:30N 34°11' E 135°07'0 0.0
2018-Mar-17 20:00N 34°11' E 135°07'0 0.0
2018-Mar-17 19:30N 34°11' E 135°07'0 0.0
2018-Mar-17 19:00N 34°11' E 135°07'0 0.1
2018-Mar-17 18:30N 34°11' E 135°07'0 0.0
2018-Mar-17 18:00N 34°11' E 135°07'0 0.0
2018-Mar-17 17:30N 34°11' E 135°07'0 0.0
2018-Mar-17 17:00N 34°11' E 135°07'0 0.0
2018-Mar-17 16:30N 34°11' E 135°07'0 0.0
2018-Mar-17 16:00N 34°11' E 135°07'0 0.0
2018-Mar-17 15:30N 34°11' E 135°07'0 0.0
2018-Mar-17 15:00N 34°11' E 135°07'0 0.0
2018-Mar-17 14:30N 34°11' E 135°07'0 0.0
2018-Mar-17 14:00N 34°11' E 135°07'0 0.0
2018-Mar-17 13:30N 34°11' E 135°07'0 0.0
2018-Mar-17 13:00N 34°11' E 135°07'0 0.0
2018-Mar-17 12:30N 34°11' E 135°07'0 0.1
2018-Mar-17 12:00N 34°11' E 135°07'0 0.1
2018-Mar-17 11:30N 34°11' E 135°07'0 0.0
2018-Mar-17 11:00N 34°11' E 135°07'0 0.0
2018-Mar-17 10:30N 34°11' E 135°07'0 0.0
2018-Mar-17 10:00N 34°11' E 135°07'0 0.0
2018-Mar-17 09:30N 34°11' E 135°07'0 0.0
2018-Mar-17 09:00N 34°11' E 135°07'0 0.0
2018-Mar-17 08:30N 34°11' E 135°07'0 0.0
2018-Mar-17 08:00N 34°11' E 135°07'0 0.0
2018-Mar-17 07:30N 34°11' E 135°07'0 0.0
2018-Mar-17 07:00N 34°11' E 135°07'0 0.0
2018-Mar-17 06:30N 34°11' E 135°07'0 0.0
2018-Mar-17 06:00N 34°11' E 135°07'0 0.0
2018-Mar-17 05:30N 34°11' E 135°07'0 0.0
2018-Mar-17 05:00N 34°11' E 135°07'0 0.0
2018-Mar-17 04:30N 34°11' E 135°07'0 0.0
2018-Mar-17 04:00N 34°11' E 135°07'0 0.0
2018-Mar-17 03:30N 34°11' E 135°07'0 0.0
2018-Mar-17 03:00N 34°11' E 135°07'0 0.0
2018-Mar-17 02:30N 34°11' E 135°07'0 0.0
2018-Mar-17 02:00N 34°11' E 135°07'0 0.1
2018-Mar-17 01:30N 34°11' E 135°07'0 0.0
2018-Mar-17 01:00N 34°11' E 135°07'0 0.0
2018-Mar-17 00:30N 34°11' E 135°07'0 0.0
2018-Mar-17 00:00N 34°11' E 135°07'0 0.1
2018-Mar-16 23:30N 34°11' E 135°07'0 0.0
2018-Mar-16 23:00N 34°11' E 135°07'0 0.0
2018-Mar-16 22:30N 34°11' E 135°07'0 0.0
2018-Mar-16 22:00N 34°11' E 135°07'0 0.1
2018-Mar-16 21:30N 34°11' E 135°07'0 0.0
2018-Mar-16 21:00N 34°11' E 135°07'0 0.0
2018-Mar-16 20:30N 34°11' E 135°07'0 0.0
2018-Mar-16 20:00N 34°11' E 135°07'0 0.0
2018-Mar-16 19:30N 34°11' E 135°07'0 0.0
2018-Mar-16 19:00N 34°11' E 135°07'0 0.0
2018-Mar-16 18:30N 34°11' E 135°07'1 1.7
2018-Mar-16 18:00N 34°11' E 135°06'612.3
2018-Mar-16 17:31N 34°15' E 134°60'712.9
2018-Mar-16 17:00N 34°21' E 134°60'713.3
2018-Mar-16 16:30N 34°28' E 135°01'713.3
2018-Mar-16 16:00N 34°34' E 135°03'611.8
2018-Mar-16 15:30N 34°36' E 134°56'713.8
2018-Mar-16 15:00N 34°38' E 134°48'612.3
2018-Mar-16 14:30N 34°40' E 134°41'611.5
2018-Mar-16 14:00N 34°42' E 134°35'612.0
2018-Mar-16 13:30N 34°42' E 134°27'5 8.6
2018-Mar-16 12:57N 34°44' E 134°22'1 0.1
2018-Mar-16 03:38N 34°45' E 134°22'0 1.1
2018-Mar-16 03:30N 34°45' E 134°22'4 6.0
2018-Mar-16 02:54N 34°42' E 134°25'613.8
2018-Mar-16 02:30N 34°43' E 134°32'713.3
2018-Mar-16 01:59N 34°42' E 134°40'613.3
2018-Mar-16 01:30N 34°39' E 134°47'714.0
2018-Mar-16 01:00N 34°37' E 134°55'714.4
2018-Mar-16 00:30N 34°36' E 135°04'612.1
2018-Mar-16 00:00N 34°30' E 135°04'713.7
2018-Mar-15 23:31N 34°23' E 135°02'714.4
2018-Mar-15 23:01N 34°16' E 134°60'612.5
2018-Mar-15 22:30N 34°14' E 135°07'1 1.6
2018-Mar-15 21:58N 34°14' E 135°08'0 0.0
2018-Mar-15 21:28N 34°14' E 135°08'0 0.0
2018-Mar-15 20:58N 34°14' E 135°08'0 0.0
2018-Mar-15 20:28N 34°14' E 135°08'0 0.0
2018-Mar-15 19:58N 34°14' E 135°08'0 0.0
2018-Mar-15 19:28N 34°14' E 135°08'0 0.1
2018-Mar-15 18:58N 34°14' E 135°08'0 0.0
2018-Mar-15 18:28N 34°14' E 135°08'0 0.1
2018-Mar-15 17:58N 34°14' E 135°08'0 0.0
2018-Mar-15 17:28N 34°14' E 135°08'0 0.0
2018-Mar-15 16:58N 34°14' E 135°08'0 0.0
2018-Mar-15 16:28N 34°14' E 135°08'0 0.0
2018-Mar-15 15:55N 34°14' E 135°08'0 0.0
2018-Mar-15 15:28N 34°14' E 135°08'0 0.0
2018-Mar-15 14:58N 34°14' E 135°08'0 0.0
2018-Mar-15 14:28N 34°14' E 135°08'0 0.0
2018-Mar-15 13:58N 34°14' E 135°08'0 0.1
2018-Mar-15 13:28N 34°14' E 135°08'0 0.0
2018-Mar-15 12:58N 34°14' E 135°08'0 0.0
2018-Mar-15 12:28N 34°14' E 135°08'0 0.1
2018-Mar-15 11:58N 34°14' E 135°08'0 0.0
2018-Mar-15 11:25N 34°14' E 135°08'0 0.0
2018-Mar-15 10:58N 34°14' E 135°08'0 0.0
2018-Mar-15 10:28N 34°14' E 135°08'0 0.0
2018-Mar-15 09:58N 34°14' E 135°08'0 0.0
2018-Mar-15 09:28N 34°14' E 135°08'0 0.1
2018-Mar-15 08:58N 34°14' E 135°08'0 0.1
2018-Mar-15 08:28N 34°14' E 135°08'0 0.0
2018-Mar-15 07:58N 34°14' E 135°08'0 0.5
2018-Mar-15 07:30N 34°14' E 135°08'2 4.3
2018-Mar-15 07:00N 34°14' E 135°05'2 3.2
2018-Mar-15 06:30N 34°13' E 135°05'2 4.0
2018-Mar-15 06:00N 34°11' E 135°07'0 0.0
2018-Mar-15 05:29N 34°11' E 135°07'0 0.0
2018-Mar-15 04:59N 34°11' E 135°07'0 0.0
2018-Mar-15 04:29N 34°11' E 135°07'0 0.0
2018-Mar-15 03:59N 34°11' E 135°07'0 0.0
2018-Mar-15 03:29N 34°11' E 135°07'0 0.0
2018-Mar-15 02:59N 34°11' E 135°07'0 0.1
2018-Mar-15 02:29N 34°11' E 135°07'0 0.1
2018-Mar-15 01:59N 34°11' E 135°07'0 0.0
2018-Mar-15 01:29N 34°11' E 135°07'0 0.0
2018-Mar-15 00:59N 34°11' E 135°07'0 0.0
2018-Mar-15 00:29N 34°11' E 135°07'0 0.1
2018-Mar-14 23:59N 34°11' E 135°07'0 0.1
2018-Mar-14 23:29N 34°11' E 135°07'0 0.0
2018-Mar-14 22:59N 34°11' E 135°07'0 0.0
2018-Mar-14 22:29N 34°11' E 135°07'0 0.0
2018-Mar-14 21:59N 34°11' E 135°07'0 0.0
2018-Mar-14 21:29N 34°11' E 135°07'0 0.0
2018-Mar-14 20:59N 34°11' E 135°07'0 0.0
2018-Mar-14 20:29N 34°11' E 135°07'0 0.0
2018-Mar-14 19:59N 34°11' E 135°07'0 0.0
2018-Mar-14 19:29N 34°11' E 135°07'0 0.0
2018-Mar-14 18:59N 34°11' E 135°07'0 0.0
2018-Mar-14 18:29N 34°11' E 135°07'0 0.0
2018-Mar-14 17:59N 34°11' E 135°07'0 0.0
2018-Mar-14 17:29N 34°11' E 135°07'0 0.0
2018-Mar-14 16:59N 34°11' E 135°07'0 0.0
2018-Mar-14 16:29N 34°11' E 135°07'0 0.1
2018-Mar-14 15:59N 34°11' E 135°07'0 0.1
2018-Mar-14 15:29N 34°11' E 135°07'0 0.1
2018-Mar-14 14:59N 34°11' E 135°07'0 0.0
2018-Mar-14 14:29N 34°11' E 135°07'0 0.0
2018-Mar-14 13:59N 34°11' E 135°07'2 3.9
2018-Mar-14 13:30N 34°10' E 135°05'611.8
2018-Mar-14 13:00N 34°05' E 135°01'611.9
2018-Mar-14 12:30N 33°59' E 135°00'612.2
2018-Mar-14 12:00N 33°54' E 134°58'612.1
2018-Mar-14 11:29N 33°48' E 134°55'  

Dump ship's entire track history